createdAt,value
2023-03-17T00:02:54.398Z,2.38
2023-03-17T00:08:06.337Z,2.05
2023-03-17T00:13:14.341Z,2.00
2023-03-17T00:18:21.043Z,3.45
2023-03-17T00:23:26.572Z,2.97
2023-03-17T00:28:30.195Z,1.33
2023-03-17T00:33:37.177Z,1.75
2023-03-17T00:38:42.005Z,1.65
2023-03-17T00:43:46.144Z,1.17
2023-03-17T00:48:49.931Z,2.65
2023-03-17T00:53:54.716Z,2.30
2023-03-17T00:58:58.182Z,1.77
2023-03-17T01:04:01.907Z,1.92
2023-03-17T01:09:08.187Z,1.63
2023-03-17T01:14:13.636Z,1.60
2023-03-17T01:19:17.172Z,2.03
2023-03-17T01:24:22.048Z,2.40
2023-03-17T01:29:27.109Z,1.27
2023-03-17T01:34:30.554Z,2.20
2023-03-17T01:39:35.433Z,2.05
2023-03-17T01:45:02.378Z,1.63
2023-03-17T01:50:10.698Z,2.20
2023-03-17T01:55:19.184Z,2.13
2023-03-17T02:00:26.622Z,2.47
2023-03-17T02:05:32.969Z,2.33
2023-03-17T02:10:37.812Z,2.10
2023-03-17T02:15:44.468Z,1.98
2023-03-17T02:21:51.437Z,1.77
2023-03-17T02:26:58.449Z,1.58
2023-03-17T02:32:02.452Z,1.75
2023-03-17T02:37:09.292Z,2.33
2023-03-17T02:42:14.696Z,1.75
2023-03-17T02:47:18.816Z,2.30
2023-03-17T02:52:23.851Z,2.25
2023-03-17T02:57:27.657Z,1.83
2023-03-17T03:02:31.245Z,2.88
2023-03-17T03:07:36.399Z,2.60
2023-03-17T03:12:40.149Z,1.88
2023-03-17T03:17:43.571Z,2.20
2023-03-17T03:22:48.640Z,2.00
2023-03-17T03:27:52.231Z,1.50
2023-03-17T03:32:56.238Z,2.08
2023-03-17T03:38:01.694Z,1.90
2023-03-17T03:43:19.750Z,1.67
2023-03-17T03:48:25.584Z,2.38
2023-03-17T03:53:31.209Z,1.63
2023-03-17T03:58:34.643Z,1.83
2023-03-17T04:03:38.910Z,2.00
2023-03-17T04:08:43.930Z,2.45
2023-03-17T04:13:47.329Z,2.33
2023-03-17T04:18:51.240Z,1.80
2023-03-17T04:23:56.158Z,1.42
2023-03-17T04:28:59.783Z,2.25
2023-03-17T04:34:03.418Z,2.03
2023-03-17T04:39:08.258Z,1.63
2023-03-17T04:44:11.690Z,1.85
2023-03-17T04:49:15.124Z,1.40
2023-03-17T04:54:20.238Z,1.35
2023-03-17T04:59:23.887Z,2.50
2023-03-17T05:04:31.571Z,1.63
2023-03-17T05:09:37.183Z,1.65
2023-03-17T05:14:40.950Z,1.48
2023-03-17T05:19:45.586Z,2.78
2023-03-17T05:24:50.552Z,1.63
2023-03-17T05:29:54.160Z,2.85
2023-03-17T05:34:57.858Z,1.55
2023-03-17T05:40:03.112Z,2.13
2023-03-17T05:45:08.396Z,1.95
2023-03-17T05:50:13.944Z,1.92
2023-03-17T05:55:21.740Z,3.88
2023-03-17T06:00:25.663Z,1.88
2023-03-17T06:05:29.160Z,1.98
2023-03-17T06:10:34.740Z,2.45
2023-03-17T06:15:38.449Z,1.25
2023-03-17T06:20:41.891Z,1.60
2023-03-17T06:25:47.576Z,1.70
2023-03-17T06:30:51.417Z,2.08
2023-03-17T06:35:54.906Z,2.17
2023-03-17T06:40:59.687Z,2.10
2023-03-17T06:46:03.422Z,2.00
2023-03-17T06:51:07.899Z,1.58
2023-03-17T06:56:27.398Z,2.17
2023-03-17T07:01:33.679Z,2.28
2023-03-17T07:06:37.542Z,2.05
2023-03-17T07:11:42.862Z,1.98
2023-03-17T07:16:46.310Z,1.65
2023-03-17T07:21:49.759Z,1.67
2023-03-17T07:26:54.501Z,2.47
2023-03-17T07:31:57.912Z,2.55
2023-03-17T07:37:01.813Z,2.38
2023-03-17T07:42:07.215Z,1.88
2023-03-17T07:47:13.273Z,2.33
2023-03-17T07:52:17.075Z,1.10
2023-03-17T07:57:22.239Z,2.58
2023-03-17T08:02:26.259Z,2.03
2023-03-17T08:07:30.987Z,2.40
2023-03-17T08:12:36.543Z,2.03
2023-03-17T08:17:41.809Z,1.50
2023-03-17T08:22:45.437Z,1.75
2023-03-17T08:27:50.391Z,1.63
2023-03-17T08:32:54.736Z,2.20
2023-03-17T08:37:58.448Z,2.05
2023-03-17T08:43:03.937Z,1.98
2023-03-17T08:48:07.471Z,1.88
2023-03-17T08:53:11.032Z,2.38
2023-03-17T08:58:15.807Z,2.85
2023-03-17T09:03:20.761Z,1.85
2023-03-17T09:08:24.819Z,1.73
2023-03-17T09:13:29.930Z,1.58
2023-03-17T09:18:33.668Z,2.55
2023-03-17T09:23:37.403Z,2.42
2023-03-17T09:28:42.656Z,3.17
2023-03-17T09:33:47.385Z,2.25
2023-03-17T09:38:51.191Z,2.60
2023-03-17T09:44:06.796Z,1.92
2023-03-17T09:49:13.847Z,1.83
2023-03-17T09:54:27.662Z,1.65
2023-03-17T09:59:36.836Z,2.67
2023-03-17T10:04:42.292Z,1.65
2023-03-17T10:09:58.710Z,2.13
2023-03-17T10:15:07.764Z,2.13
2023-03-17T10:20:18.611Z,2.10
2023-03-17T10:25:26.289Z,1.80
2023-03-17T10:30:34.539Z,2.10
2023-03-17T10:35:39.561Z,1.58
2023-03-17T10:40:48.800Z,2.08
2023-03-17T10:46:04.335Z,2.80
2023-03-17T10:51:10.976Z,2.72
2023-03-17T10:56:27.180Z,1.92
2023-03-17T11:01:40.248Z,1.92
2023-03-17T11:06:52.419Z,1.63
2023-03-17T11:12:06.449Z,2.25
2023-03-17T11:17:22.850Z,2.40
2023-03-17T11:22:35.291Z,1.88
2023-03-17T11:27:48.546Z,1.90
2023-03-17T11:33:00.764Z,2.50
2023-03-17T11:38:25.977Z,1.98
2023-03-17T11:43:35.367Z,2.40
2023-03-17T11:48:51.121Z,2.85
2023-03-17T11:54:10.646Z,1.98
2023-03-17T11:59:27.425Z,2.42
2023-03-17T12:04:37.975Z,2.30
2023-03-17T12:09:47.306Z,1.90
2023-03-17T12:14:53.980Z,3.33
2023-03-17T12:20:14.832Z,2.17
2023-03-17T12:25:26.995Z,1.60
2023-03-17T12:30:41.068Z,1.83
2023-03-17T12:35:46.285Z,1.75
2023-03-17T12:41:47.606Z,1.88
2023-03-17T12:47:18.296Z,1.85
2023-03-17T12:52:48.517Z,1.63
2023-03-17T12:58:03.464Z,2.42
2023-03-17T13:03:23.124Z,1.95
2023-03-17T13:08:33.759Z,2.60
2023-03-17T13:13:48.149Z,3.13
2023-03-17T13:18:53.256Z,1.45
2023-03-17T13:24:47.170Z,1.95
2023-03-17T13:29:51.343Z,1.77
2023-03-17T13:35:13.424Z,1.77
2023-03-17T13:40:23.218Z,3.60
2023-03-17T13:45:41.767Z,2.30
2023-03-17T13:50:46.626Z,2.08
2023-03-17T14:01:24.860Z,1.85
2023-03-17T14:06:31.332Z,2.15
2023-03-17T14:11:39.162Z,2.33
2023-03-17T14:16:55.313Z,2.20
2023-03-17T14:22:05.322Z,1.63
2023-03-17T14:27:14.837Z,1.95
2023-03-17T14:32:23.092Z,1.85
2023-03-17T14:37:28.884Z,2.58
2023-03-17T14:42:33.379Z,1.77
2023-03-17T14:47:43.268Z,2.40
2023-03-17T14:52:46.821Z,2.13
2023-03-17T14:57:53.450Z,1.65
2023-03-17T15:03:02.199Z,2.45
2023-03-17T15:08:48.093Z,2.22
2023-03-17T15:13:56.981Z,1.58
2023-03-17T15:19:09.869Z,1.88
2023-03-17T15:24:34.258Z,2.00
2023-03-17T15:29:37.712Z,2.38
2023-03-17T15:34:42.666Z,2.65
2023-03-17T15:39:46.917Z,2.10
2023-03-17T15:44:50.340Z,1.60
2023-03-17T15:49:59.971Z,3.00
2023-03-17T15:55:05.107Z,2.03
2023-03-17T16:00:17.220Z,2.90
2023-03-17T16:05:26.541Z,2.05
2023-03-17T16:10:33.291Z,2.70
2023-03-17T16:15:41.158Z,1.95
2023-03-17T16:20:48.644Z,3.47
2023-03-17T16:25:53.991Z,2.25
2023-03-17T16:31:01.660Z,2.55
2023-03-17T16:36:07.755Z,2.97
2023-03-17T16:41:20.470Z,3.72
2023-03-17T16:46:24.450Z,2.40
2023-03-17T16:51:29.297Z,3.05
2023-03-17T16:56:32.768Z,2.42
2023-03-17T17:01:36.341Z,2.00
2023-03-17T17:06:41.153Z,2.95
2023-03-17T17:11:44.573Z,2.08
2023-03-17T17:16:48.000Z,2.97
2023-03-17T17:21:52.782Z,2.67
2023-03-17T17:26:56.196Z,2.70
2023-03-17T17:31:59.675Z,2.60
2023-03-17T17:37:04.540Z,2.45
2023-03-17T17:42:11.545Z,2.63
2023-03-17T17:47:16.262Z,2.45
2023-03-17T17:52:21.084Z,2.63
2023-03-17T17:57:24.534Z,1.90
2023-03-17T18:02:27.912Z,2.65
2023-03-17T18:07:32.967Z,3.08
2023-03-17T18:12:36.425Z,2.97
2023-03-17T18:17:39.918Z,2.63
2023-03-17T18:22:45.573Z,3.20
2023-03-17T18:27:49.645Z,2.85
2023-03-17T18:32:58.230Z,4.40
2023-03-17T18:38:03.355Z,3.47
2023-03-17T18:43:06.760Z,3.08
2023-03-17T18:48:10.233Z,2.38
2023-03-17T18:53:15.139Z,3.85
2023-03-17T18:58:18.589Z,3.95
2023-03-17T19:03:22.290Z,2.83
2023-03-17T19:08:27.193Z,3.55
2023-03-17T19:13:30.595Z,3.95
2023-03-17T19:18:34.162Z,3.35
2023-03-17T19:23:39.272Z,3.17
2023-03-17T19:28:42.880Z,3.88
2023-03-17T19:33:46.263Z,3.08
2023-03-17T19:38:51.756Z,4.18
2023-03-17T19:43:55.148Z,2.88
2023-03-17T19:48:58.557Z,3.40
2023-03-17T19:54:05.210Z,3.47
2023-03-17T19:59:09.379Z,3.72
2023-03-17T20:04:17.547Z,3.67
2023-03-17T20:09:24.620Z,3.45
2023-03-17T20:14:28.075Z,3.35
2023-03-17T20:19:31.608Z,2.97
2023-03-17T20:24:38.287Z,2.92
2023-03-17T20:29:42.834Z,3.08
2023-03-17T20:34:46.687Z,4.03
2023-03-17T20:39:52.685Z,3.50
2023-03-17T20:44:56.775Z,3.45
2023-03-17T20:50:00.590Z,3.80
2023-03-17T20:55:06.744Z,4.13
2023-03-17T21:00:17.845Z,4.13
2023-03-17T21:05:25.245Z,3.17
2023-03-17T21:10:30.559Z,4.00
2023-03-17T21:15:34.390Z,3.38
2023-03-17T21:20:37.842Z,3.35
2023-03-17T21:25:43.286Z,3.83
2023-03-17T21:30:46.993Z,3.80
2023-03-17T21:35:50.594Z,3.42
2023-03-17T21:40:55.635Z,3.90
2023-03-17T21:45:59.153Z,3.28
2023-03-17T21:51:02.604Z,3.38
2023-03-17T21:56:08.700Z,2.67
2023-03-17T22:01:14.324Z,4.10
2023-03-17T22:06:19.216Z,4.25
2023-03-17T22:11:24.158Z,4.20
2023-03-17T22:16:27.730Z,3.85
2023-03-17T22:21:31.756Z,4.55
2023-03-17T22:26:36.923Z,3.78
2023-03-17T22:31:41.181Z,3.85
2023-03-17T22:36:44.751Z,3.40
2023-03-17T22:41:49.554Z,3.42
2023-03-17T22:46:52.982Z,4.20
2023-03-17T22:51:56.382Z,3.30
2023-03-17T22:57:01.305Z,3.35
2023-03-17T23:02:04.841Z,3.13
2023-03-17T23:07:08.439Z,3.53
2023-03-17T23:12:14.087Z,2.80
2023-03-17T23:17:17.474Z,3.35
2023-03-17T23:22:21.407Z,3.13
2023-03-17T23:27:26.252Z,4.47
2023-03-17T23:32:29.728Z,3.70
2023-03-17T23:37:33.320Z,4.22
2023-03-17T23:42:38.383Z,4.03
2023-03-17T23:47:53.314Z,3.45
2023-03-17T23:52:56.997Z,4.88
2023-03-17T23:58:02.638Z,3.67
